createdAt,value
2022-08-16T00:29:24.072Z,0
2022-08-16T00:30:09.111Z,0
2022-08-16T00:30:44.997Z,0
2022-08-16T00:31:25.480Z,0
2022-08-16T00:32:06.491Z,0
2022-08-16T00:32:46.570Z,0
2022-08-16T00:33:26.885Z,0
2022-08-16T00:34:07.379Z,0
2022-08-16T00:34:52.830Z,0
2022-08-16T00:35:28.319Z,0
2022-08-16T00:36:08.773Z,0
2022-08-16T00:43:41.037Z,0
2022-08-16T00:44:14.510Z,0
2022-08-16T00:44:54.950Z,0
2022-08-16T00:45:35.761Z,0
2022-08-16T00:46:22.177Z,0
2022-08-16T00:47:02.516Z,0
2022-08-16T00:47:37.069Z,0
2022-08-16T00:50:50.638Z,0
2022-08-16T00:51:31.353Z,0
2022-08-16T00:52:23.723Z,0
2022-08-16T00:52:53.638Z,0
2022-08-16T00:53:32.828Z,0
2022-08-16T00:54:13.296Z,0
2022-08-16T00:54:53.758Z,0
2022-08-16T00:55:36.856Z,0
2022-08-16T00:56:40.213Z,0
2022-08-16T00:56:57.240Z,0
2022-08-16T00:57:59.371Z,0
2022-08-16T01:05:04.703Z,0
2022-08-16T01:05:41.404Z,0
2022-08-16T01:06:32.818Z,0
2022-08-16T01:07:03.099Z,0
2022-08-16T01:07:51.568Z,0
2022-08-16T01:08:35.535Z,0
2022-08-16T01:09:03.868Z,0
2022-08-16T01:09:44.394Z,0
2022-08-16T01:10:31.695Z,0
2022-08-16T01:11:05.321Z,0
2022-08-16T01:11:51.810Z,0
2022-08-16T01:19:51.578Z,0
2022-08-16T01:20:32.077Z,0
2022-08-16T01:21:12.583Z,0
2022-08-16T01:21:53.062Z,0
2022-08-16T01:22:47.344Z,0
2022-08-16T01:23:13.957Z,0
2022-08-16T01:23:58.290Z,0
2022-08-16T01:24:44.918Z,0
2022-08-16T01:25:15.416Z,0
2022-08-16T01:25:58.261Z,0
2022-08-16T01:32:40.661Z,0
2022-08-16T01:33:22.386Z,0
2022-08-16T01:34:01.570Z,0
2022-08-16T01:34:46.981Z,0
2022-08-16T01:35:22.633Z,0
2022-08-16T01:36:09.313Z,0
2022-08-16T01:36:43.627Z,0
2022-08-16T01:37:24.035Z,0
2022-08-16T01:38:04.487Z,0
2022-08-16T01:38:47.012Z,0
2022-08-16T01:39:25.538Z,0
2022-08-16T01:40:07.028Z,0
2022-08-16T01:46:50.918Z,0
2022-08-16T01:47:33.041Z,0
2022-08-16T01:48:15.648Z,0
2022-08-16T01:48:52.276Z,0
2022-08-16T01:49:35.943Z,0
2022-08-16T01:50:41.690Z,0
2022-08-16T01:51:08.597Z,0
2022-08-16T01:51:34.130Z,0
2022-08-16T01:52:27.845Z,0
2022-08-16T01:52:55.087Z,0
2022-08-16T01:53:35.567Z,0
2022-08-16T02:01:00.785Z,0
2022-08-16T02:01:41.305Z,0
2022-08-16T02:02:22.141Z,0
2022-08-16T02:03:02.461Z,0
2022-08-16T02:03:42.672Z,0
2022-08-16T02:04:29.855Z,0
2022-08-16T02:05:03.637Z,0
2022-08-16T02:05:46.707Z,0
2022-08-16T02:06:34.001Z,0
2022-08-16T02:07:05.057Z,0
2022-08-16T02:07:45.531Z,0
2022-08-16T02:15:10.677Z,0
2022-08-16T02:15:51.148Z,0
2022-08-16T02:16:31.633Z,0
2022-08-16T02:17:12.146Z,0
2022-08-16T02:17:52.795Z,0
2022-08-16T02:18:33.124Z,0
2022-08-16T02:19:15.790Z,0
2022-08-16T02:19:58.295Z,0
2022-08-16T02:20:35.077Z,0
2022-08-16T02:21:15.590Z,0
2022-08-16T02:22:07.618Z,0
2022-08-16T02:22:36.760Z,0
2022-08-16T02:30:04.835Z,0
2022-08-16T02:30:44.143Z,0
2022-08-16T02:31:22.043Z,0
2022-08-16T02:32:04.260Z,0
2022-08-16T02:32:49.636Z,0
2022-08-16T02:33:24.282Z,0
2022-08-16T02:34:06.510Z,0
2022-08-16T02:34:44.402Z,0
2022-08-16T02:35:24.851Z,0
2022-08-16T02:36:05.341Z,0
2022-08-16T02:36:48.330Z,0
2022-08-16T02:44:10.988Z,0
2022-08-16T02:44:51.459Z,0
2022-08-16T02:45:31.981Z,0
2022-08-16T02:46:12.445Z,0
2022-08-16T02:46:53.745Z,0
2022-08-16T02:47:33.389Z,0
2022-08-16T02:48:28.198Z,0
2022-08-16T02:49:58.872Z,0
2022-08-16T02:50:53.229Z,0
2022-08-16T02:51:06.907Z,0
2022-08-16T02:58:24.898Z,0
2022-08-16T02:59:01.452Z,0
2022-08-16T02:59:41.873Z,0
2022-08-16T03:00:32.279Z,0
2022-08-16T03:01:02.905Z,0
2022-08-16T03:01:43.384Z,0
2022-08-16T03:02:31.624Z,0
2022-08-16T03:03:04.237Z,0
2022-08-16T03:04:24.865Z,0
2022-08-16T03:04:30.346Z,0
2022-08-16T03:05:05.669Z,0
2022-08-16T03:12:36.863Z,0
2022-08-16T03:13:12.119Z,0
2022-08-16T03:13:53.125Z,0
2022-08-16T03:15:12.784Z,0
2022-08-16T03:15:53.245Z,0
2022-08-16T03:16:36.556Z,0
2022-08-16T03:17:14.206Z,0
2022-08-16T03:17:54.713Z,0
2022-08-16T03:18:40.651Z,0
2022-08-16T03:19:15.610Z,0
2022-08-16T03:22:54.766Z,0
2022-08-16T03:23:35.690Z,0
2022-08-16T03:24:27.848Z,0
2022-08-16T03:24:57.470Z,0
2022-08-16T03:25:36.931Z,0
2022-08-16T03:26:17.982Z,0
2022-08-16T03:26:57.926Z,0
2022-08-16T03:27:38.069Z,0
2022-08-16T03:28:18.555Z,0
2022-08-16T03:28:59.049Z,0
2022-08-16T03:37:04.909Z,0
2022-08-16T03:38:02.194Z,0
2022-08-16T03:38:32.259Z,0
2022-08-16T03:39:06.291Z,0
2022-08-16T03:39:46.845Z,0
2022-08-16T03:40:30.583Z,0
2022-08-16T03:41:14.255Z,0
2022-08-16T03:41:49.894Z,0
2022-08-16T03:42:28.799Z,0
2022-08-16T03:43:19.377Z,0
2022-08-16T03:43:50.891Z,0
2022-08-16T03:50:34.649Z,4
2022-08-16T03:51:15.117Z,0
2022-08-16T03:51:55.632Z,0
2022-08-16T03:52:36.032Z,4
2022-08-16T03:53:16.490Z,0
2022-08-16T03:53:57.901Z,0
2022-08-16T03:54:37.472Z,4
2022-08-16T03:55:17.958Z,0
2022-08-16T03:55:58.455Z,4
2022-08-16T03:56:38.969Z,4
2022-08-16T03:57:19.504Z,4
2022-08-16T04:04:44.911Z,12
2022-08-16T04:05:25.379Z,16
2022-08-16T04:06:05.930Z,16
2022-08-16T04:06:46.367Z,16
2022-08-16T04:07:26.870Z,16
2022-08-16T04:08:22.672Z,20
2022-08-16T04:08:47.831Z,20
2022-08-16T04:09:28.320Z,20
2022-08-16T04:10:36.517Z,24
2022-08-16T04:10:49.283Z,24
2022-08-16T04:11:36.703Z,28
2022-08-16T04:17:30.580Z,52
2022-08-16T04:18:10.900Z,52
2022-08-16T04:18:51.577Z,60
2022-08-16T04:19:32.426Z,60
2022-08-16T04:20:23.234Z,64
2022-08-16T04:20:53.350Z,68
2022-08-16T04:21:34.489Z,72
2022-08-16T04:22:17.247Z,76
2022-08-16T04:22:54.778Z,80
2022-08-16T04:29:43.302Z,132
2022-08-16T04:30:20.842Z,136
2022-08-16T04:31:01.772Z,144
2022-08-16T04:31:42.101Z,152
2022-08-16T04:32:22.559Z,160
2022-08-16T04:33:04.463Z,168
2022-08-16T04:33:47.368Z,176
2022-08-16T04:34:24.875Z,188
2022-08-16T04:35:07.730Z,200
2022-08-16T04:35:44.973Z,208
2022-08-16T04:43:10.423Z,348
2022-08-16T04:47:01.583Z,444
2022-08-16T04:47:21.072Z,464
2022-08-16T04:47:56.116Z,484
2022-08-16T04:48:32.677Z,504
2022-08-16T04:49:12.586Z,532
2022-08-16T04:49:53.053Z,556
2022-08-16T04:50:33.507Z,588
2022-08-16T04:51:13.994Z,620
2022-08-16T04:51:55.346Z,664
2022-08-16T04:58:45.399Z,1108
2022-08-16T04:59:20.047Z,1176
2022-08-16T05:00:25.191Z,1228
2022-08-16T05:00:41.569Z,1312
2022-08-16T05:01:22.187Z,1372
2022-08-16T05:02:02.910Z,1424
2022-08-16T05:02:43.447Z,1504
2022-08-16T05:03:23.888Z,1616
2022-08-16T05:04:04.363Z,1672
2022-08-16T05:11:32.014Z,2776
2022-08-16T05:12:10.963Z,2872
2022-08-16T05:12:50.961Z,3020
2022-08-16T05:13:35.135Z,3148
2022-08-16T05:14:11.985Z,3300
2022-08-16T05:15:01.652Z,3356
2022-08-16T05:15:32.987Z,3616
2022-08-16T05:16:16.809Z,3904
2022-08-16T05:16:53.907Z,3844
2022-08-16T05:17:34.413Z,4204
2022-08-16T05:23:15.324Z,6216
2022-08-16T05:23:58.797Z,6448
2022-08-16T05:24:36.521Z,6856
2022-08-16T05:25:16.968Z,7036
2022-08-16T05:25:57.485Z,7152
2022-08-16T05:26:40.769Z,7300
2022-08-16T05:27:18.577Z,7612
2022-08-16T05:27:59.030Z,7760
2022-08-16T05:28:39.782Z,8300
2022-08-16T05:29:20.841Z,8400
2022-08-16T05:33:03.052Z,8792
2022-08-16T05:33:44.134Z,8784
2022-08-16T05:34:24.646Z,8960
2022-08-16T05:35:05.099Z,9240
2022-08-16T05:35:54.718Z,9412
2022-08-16T05:36:33.693Z,9808
2022-08-16T05:37:06.676Z,9924
2022-08-16T05:40:33.240Z,10856
2022-08-16T05:41:14.118Z,11292
2022-08-16T05:41:54.378Z,11488
2022-08-16T05:42:35.749Z,11616
2022-08-16T05:43:15.405Z,11904
2022-08-16T05:43:58.898Z,12128
2022-08-16T05:44:36.438Z,12800
2022-08-16T05:45:21.533Z,12896
2022-08-16T05:50:42.400Z,14720
2022-08-16T05:51:35.416Z,14400
2022-08-16T05:52:04.269Z,14944
2022-08-16T05:52:45.026Z,15232
2022-08-16T06:31:24.566Z,26560
2022-08-16T06:32:00.083Z,26592
2022-08-16T06:32:43.071Z,26464
2022-08-16T06:33:22.491Z,26176
2022-08-16T06:34:01.896Z,26592
2022-08-16T06:34:55.145Z,27584
2022-08-16T06:35:23.479Z,27392
2022-08-16T06:36:04.032Z,27456
2022-08-16T06:42:09.265Z,29312
2022-08-16T06:44:24.411Z,29376
2022-08-16T06:45:03.501Z,29568
2022-08-16T06:45:44.078Z,29952
2022-08-16T06:46:24.637Z,29120
2022-08-16T06:48:58.959Z,24800
2022-08-16T06:49:39.297Z,23776
2022-08-16T06:50:22.333Z,22976
2022-08-16T06:52:58.758Z,20256
2022-08-16T06:54:41.719Z,19680
2022-08-16T06:55:22.463Z,18624
2022-08-16T06:56:03.122Z,17792
2022-08-16T06:56:43.624Z,17536
2022-08-16T06:57:24.329Z,17248
2022-08-16T07:03:54.818Z,13728
2022-08-16T07:04:32.153Z,14024
2022-08-16T07:05:02.481Z,14556
2022-08-16T07:05:42.988Z,14880
2022-08-16T07:06:26.266Z,15200
2022-08-16T07:07:04.098Z,15456
2022-08-16T07:07:44.597Z,15712
2022-08-16T07:14:29.663Z,11048
2022-08-16T07:15:16.998Z,10748
2022-08-16T07:15:51.188Z,11496
2022-08-16T07:16:31.202Z,12088
2022-08-16T07:17:12.784Z,12036
2022-08-16T07:17:52.168Z,11804
2022-08-16T07:18:32.656Z,11496
2022-08-16T07:19:13.190Z,11312
2022-08-16T07:20:02.396Z,11248
2022-08-16T07:20:35.782Z,11300
2022-08-16T07:21:14.623Z,11284
2022-08-16T07:27:19.415Z,6604
2022-08-16T07:27:59.961Z,6092
2022-08-16T07:28:40.457Z,5880
2022-08-16T07:29:20.875Z,5728
2022-08-16T07:30:01.397Z,5632
2022-08-16T07:30:46.209Z,5544
2022-08-16T07:31:22.488Z,5444
2022-08-16T07:32:43.435Z,5268
2022-08-16T07:33:51.191Z,5176
2022-08-16T07:34:04.498Z,5092
2022-08-16T07:40:59.888Z,4488
2022-08-16T07:41:30.156Z,4404
2022-08-16T07:42:10.817Z,4344
2022-08-16T07:42:51.232Z,4284
2022-08-16T07:43:31.737Z,4220
2022-08-16T07:44:15.531Z,4140
2022-08-16T07:46:38.247Z,3976
2022-08-16T07:47:06.502Z,3916
2022-08-16T07:47:46.988Z,3868
2022-08-16T07:48:29.138Z,3828
2022-08-16T07:49:11.286Z,3788
2022-08-16T07:53:15.714Z,3552
2022-08-16T07:54:02.267Z,3508
2022-08-16T07:54:38.074Z,3476
2022-08-16T07:55:17.644Z,3448
2022-08-16T07:55:58.677Z,3420
2022-08-16T07:56:40.813Z,3396
2022-08-16T08:00:44.951Z,3236
2022-08-16T08:01:25.545Z,3212
2022-08-16T08:02:06.800Z,3192
2022-08-16T08:02:47.549Z,3164
2022-08-16T08:03:35.781Z,3148
2022-08-16T08:04:11.273Z,3120
2022-08-16T08:07:36.763Z,3008
2022-08-16T08:08:49.939Z,2988
2022-08-16T08:08:59.269Z,2972
2022-08-16T08:10:29.371Z,2944
2022-08-16T08:14:29.565Z,2892
2022-08-16T08:14:52.259Z,2888
2022-08-16T08:15:34.520Z,2856
2022-08-16T08:16:18.710Z,2832
2022-08-16T08:19:00.798Z,2836
2022-08-16T08:19:41.126Z,2836
2022-08-16T08:20:26.457Z,2832
2022-08-16T08:21:03.292Z,2828
2022-08-16T08:21:48.794Z,2824
2022-08-16T08:27:11.946Z,2728
2022-08-16T08:27:57.441Z,2720
2022-08-16T08:28:33.426Z,2708
2022-08-16T08:29:14.736Z,2708
2022-08-16T08:30:49.120Z,2696
2022-08-16T08:31:20.303Z,2696
2022-08-16T08:32:02.083Z,2692
2022-08-16T08:34:07.786Z,2692
2022-08-16T08:34:49.102Z,2692
2022-08-16T08:36:54.725Z,2680
2022-08-16T08:37:53.997Z,2680
2022-08-16T08:38:44.401Z,2672
2022-08-16T08:39:25.505Z,2668
2022-08-16T08:40:09.002Z,2660
2022-08-16T08:40:52.692Z,2652
2022-08-16T08:41:34.508Z,2648
2022-08-16T08:42:57.408Z,2632
2022-08-16T08:43:41.411Z,2628
2022-08-16T08:44:28.182Z,2616
2022-08-16T08:44:57.225Z,2608
2022-08-16T08:45:53.626Z,2604
2022-08-16T08:46:21.260Z,2588
2022-08-16T08:47:02.342Z,2580
2022-08-16T08:49:46.078Z,2556
2022-08-16T08:50:31.496Z,2552
2022-08-16T08:51:08.852Z,2548
2022-08-16T08:51:47.259Z,2540
2022-08-16T08:52:33.948Z,2536
2022-08-16T08:53:08.318Z,2448
2022-08-16T08:53:57.376Z,2480
2022-08-16T08:55:11.418Z,2512
2022-08-16T09:01:15.342Z,2460
2022-08-16T09:01:56.430Z,2452
2022-08-16T09:02:36.414Z,2448
2022-08-16T09:03:17.048Z,2440
2022-08-16T09:06:43.196Z,2448
2022-08-16T09:07:28.164Z,2420
2022-08-16T09:11:08.815Z,1988
2022-08-16T09:11:52.919Z,1912
2022-08-16T09:12:31.108Z,1872
2022-08-16T09:13:10.567Z,1924
2022-08-16T09:13:50.973Z,1952
2022-08-16T09:14:31.428Z,1960
2022-08-16T09:15:54.727Z,2092
2022-08-16T09:19:59.391Z,2352
2022-08-16T09:20:55.169Z,2380
2022-08-16T09:21:19.667Z,2388
2022-08-16T09:22:00.472Z,2432
2022-08-16T09:22:40.973Z,2472
2022-08-16T09:23:21.652Z,2500
2022-08-16T09:24:02.670Z,2520
2022-08-16T09:24:47.046Z,2512
2022-08-16T09:28:10.528Z,2296
2022-08-16T09:29:14.287Z,2328
2022-08-16T09:29:44.630Z,2332
2022-08-16T09:30:31.635Z,2312
2022-08-16T09:34:19.282Z,2136
2022-08-16T09:34:59.242Z,2136
2022-08-16T09:35:39.815Z,2144
2022-08-16T09:36:32.561Z,2160
2022-08-16T09:37:01.594Z,2172
2022-08-16T09:37:42.272Z,2168
2022-08-16T09:38:31.663Z,2128
2022-08-16T09:39:03.368Z,2080
2022-08-16T09:46:57.807Z,1952
2022-08-16T09:52:02.364Z,1988
2022-08-16T09:52:44.478Z,1992
2022-08-16T09:53:23.235Z,1980
2022-08-16T09:54:03.728Z,1992
2022-08-16T09:54:45.354Z,1972
2022-08-16T09:55:25.319Z,1972
2022-08-16T09:56:05.692Z,1964
2022-08-16T09:56:51.526Z,1952
2022-08-16T09:57:26.671Z,1948
2022-08-16T09:58:07.219Z,1940
2022-08-16T10:03:29.637Z,1512
2022-08-16T10:04:29.015Z,1536
2022-08-16T10:04:53.157Z,1540
2022-08-16T10:05:30.133Z,1648
2022-08-16T10:06:11.176Z,1660
2022-08-16T10:06:51.114Z,1724
2022-08-16T10:10:08.525Z,1732
2022-08-16T10:10:46.229Z,1696
2022-08-16T10:11:28.112Z,1744
2022-08-16T10:12:11.189Z,1768
2022-08-16T10:12:55.521Z,1824
2022-08-16T10:16:18.549Z,1796
2022-08-16T10:16:59.730Z,1720
2022-08-16T10:17:39.562Z,1716
2022-08-16T10:18:41.411Z,1740
2022-08-16T10:19:06.851Z,1696
2022-08-16T10:19:41.177Z,1700
2022-08-16T10:20:21.687Z,1712
2022-08-16T10:21:44.153Z,1648
2022-08-16T10:22:24.300Z,1628
2022-08-16T10:24:29.235Z,1620
2022-08-16T10:25:09.776Z,1584
2022-08-16T10:28:32.115Z,1672
2022-08-16T10:29:08.989Z,1620
2022-08-16T10:29:59.109Z,1664
2022-08-16T10:30:38.931Z,1684
2022-08-16T10:31:44.049Z,1660
2022-08-16T10:35:10.883Z,1660
2022-08-16T10:35:52.352Z,1652
2022-08-16T10:36:38.042Z,1632
2022-08-16T10:37:12.576Z,1604
2022-08-16T10:37:54.119Z,1576
2022-08-16T10:38:36.513Z,1568
2022-08-16T10:39:15.512Z,1536
2022-08-16T10:44:55.299Z,1544
2022-08-16T10:45:37.465Z,1564
2022-08-16T10:46:33.958Z,1592
2022-08-16T10:46:58.490Z,1640
2022-08-16T10:47:39.666Z,1648
2022-08-16T10:51:05.340Z,1700
2022-08-16T10:52:00.911Z,1708
2022-08-16T10:52:27.266Z,1712
2022-08-16T10:53:08.337Z,1708
2022-08-16T10:53:49.328Z,1700
2022-08-16T10:57:14.671Z,1652
2022-08-16T10:57:55.710Z,1640
2022-08-16T10:58:36.816Z,1640
2022-08-16T10:59:39.292Z,1632
2022-08-16T10:59:59.332Z,1624
2022-08-16T11:06:06.071Z,1504
2022-08-16T11:07:06.439Z,1492
2022-08-16T11:08:05.531Z,1472
2022-08-16T11:08:45.877Z,1460
2022-08-16T11:09:28.827Z,1448
2022-08-16T11:11:04.645Z,1436
2022-08-16T11:11:05.634Z,1440
2022-08-16T11:11:27.653Z,1440
2022-08-16T11:18:49.210Z,1400
2022-08-16T11:19:05.140Z,1396
2022-08-16T11:19:33.916Z,1316
2022-08-16T11:20:55.075Z,1264
2022-08-16T11:21:35.635Z,1384
2022-08-16T11:22:23.462Z,1416
2022-08-16T11:22:56.674Z,1416
2022-08-16T11:23:37.210Z,1412
2022-08-16T11:24:40.318Z,1424
2022-08-16T11:30:24.281Z,1344
2022-08-16T11:31:03.324Z,1412
2022-08-16T11:31:45.730Z,1420
2022-08-16T11:32:30.298Z,1412
2022-08-16T11:33:05.469Z,1408
2022-08-16T11:33:53.492Z,1404
2022-08-16T11:34:31.820Z,1408
2022-08-16T11:35:10.113Z,1468
2022-08-16T11:41:12.701Z,1464
2022-08-16T11:41:53.245Z,1468
2022-08-16T11:42:37.531Z,1464
2022-08-16T11:45:56.556Z,1440
2022-08-16T11:46:42.844Z,1408
2022-08-16T11:47:16.976Z,1388
2022-08-16T11:47:57.515Z,1400
2022-08-16T11:48:38.075Z,1376
2022-08-16T11:49:18.657Z,1396
2022-08-16T11:49:59.387Z,1388
2022-08-16T11:50:39.973Z,1420
2022-08-16T12:31:59.164Z,1644
2022-08-16T12:32:53.126Z,1676
2022-08-16T12:33:25.383Z,1716
2022-08-16T12:34:00.874Z,1764
2022-08-16T12:34:41.469Z,1820
2022-08-16T12:35:22.027Z,1868
2022-08-16T12:36:02.545Z,1920
2022-08-16T12:36:43.675Z,1996
2022-08-16T12:42:08.263Z,1968
2022-08-16T12:42:52.623Z,2044
2022-08-16T12:43:31.108Z,2008
2022-08-16T12:44:11.299Z,1956
2022-08-16T12:44:51.793Z,1916
2022-08-16T12:45:34.878Z,1884
2022-08-16T12:49:41.883Z,1704
2022-08-16T12:50:18.909Z,1684
2022-08-16T12:52:37.728Z,1628
2022-08-16T12:53:19.147Z,1616
2022-08-16T12:53:59.667Z,1596
2022-08-16T12:54:40.215Z,1228
2022-08-16T12:56:41.914Z,1180
2022-08-16T12:57:22.627Z,1160
2022-08-16T12:58:03.270Z,1156
2022-08-16T12:58:47.792Z,1164
2022-08-16T12:59:24.415Z,1196
2022-08-16T13:00:05.048Z,1348
2022-08-16T13:02:36.852Z,1524
2022-08-16T13:03:20.397Z,1528
2022-08-16T13:04:19.778Z,1512
2022-08-16T13:04:40.014Z,1496
2022-08-16T13:05:21.140Z,1492
2022-08-16T13:08:06.341Z,1508
2022-08-16T13:08:47.297Z,1508
2022-08-16T13:09:28.784Z,1516
2022-08-16T13:11:52.167Z,1500
2022-08-16T13:15:15.023Z,1452
2022-08-16T13:16:00.824Z,1456
2022-08-16T13:16:36.291Z,1280
2022-08-16T13:17:18.592Z,1448
2022-08-16T13:17:57.436Z,1440
2022-08-16T13:18:41.746Z,1456
2022-08-16T13:19:29.493Z,1456
2022-08-16T13:20:08.460Z,1448
2022-08-16T13:20:47.420Z,1448
2022-08-16T13:21:27.861Z,1448
2022-08-16T13:22:08.331Z,1448
2022-08-16T13:22:48.893Z,1452
2022-08-16T13:28:14.702Z,1544
2022-08-16T13:28:54.543Z,1576
2022-08-16T13:29:35.704Z,1576
2022-08-16T13:30:22.046Z,1564
2022-08-16T13:30:56.302Z,1604
2022-08-16T13:31:36.834Z,1620
2022-08-16T13:32:38.899Z,1656
2022-08-16T13:32:57.940Z,1688
2022-08-16T13:33:38.526Z,1660
2022-08-16T13:34:19.356Z,1284
2022-08-16T13:40:24.309Z,1948
2022-08-16T13:41:04.836Z,1948
2022-08-16T13:41:53.457Z,1916
2022-08-16T13:42:27.101Z,1912
2022-08-16T13:43:08.323Z,1948
2022-08-16T13:43:55.136Z,1840
2022-08-16T13:44:36.065Z,2024
2022-08-16T13:45:09.266Z,2008
2022-08-16T13:50:49.468Z,1548
2022-08-16T13:51:15.883Z,1440
2022-08-16T13:51:54.961Z,1484
2022-08-16T13:52:39.733Z,1276
2022-08-16T13:53:16.223Z,1320
2022-08-16T13:54:00.069Z,1216
2022-08-16T13:54:37.490Z,1384
2022-08-16T13:55:18.368Z,1140
2022-08-16T13:55:59.298Z,1100
2022-08-16T14:00:43.950Z,1196
2022-08-16T14:01:24.577Z,1224
2022-08-16T14:02:05.033Z,1240
2022-08-16T14:02:45.701Z,1240
2022-08-16T14:03:26.235Z,1244
2022-08-16T14:04:06.939Z,1256
2022-08-16T14:04:47.479Z,1376
2022-08-16T14:05:28.592Z,1356
2022-08-16T14:06:10.660Z,1316
2022-08-16T14:10:55.379Z,1188
2022-08-16T14:11:36.181Z,1196
2022-08-16T14:12:17.478Z,1220
2022-08-16T14:12:57.994Z,1364
2022-08-16T14:13:38.647Z,1360
2022-08-16T14:18:55.241Z,1204
2022-08-16T14:19:48.780Z,1180
2022-08-16T14:20:39.390Z,1164
2022-08-16T14:21:35.068Z,1164
2022-08-16T14:22:30.411Z,1180
2022-08-16T14:25:55.019Z,1180
2022-08-16T14:26:35.928Z,1160
2022-08-16T14:27:17.041Z,1144
2022-08-16T14:27:57.030Z,1132
2022-08-16T14:28:37.537Z,1132
2022-08-16T14:29:59.087Z,1152
2022-08-16T14:30:40.511Z,1160
2022-08-16T14:31:21.183Z,1176
2022-08-16T14:36:45.273Z,1128
2022-08-16T14:37:25.835Z,1136
2022-08-16T14:38:06.331Z,1140
2022-08-16T14:38:47.009Z,1144
2022-08-16T14:39:27.508Z,1144
2022-08-16T14:42:44.100Z,1156
2022-08-16T14:43:22.756Z,1168
2022-08-16T14:44:03.363Z,1164
2022-08-16T14:44:44.142Z,1160
2022-08-16T14:45:24.963Z,1156
2022-08-16T14:46:07.351Z,1144
2022-08-16T14:46:46.044Z,1120
2022-08-16T14:47:31.650Z,1096
2022-08-16T14:48:07.524Z,1076
2022-08-16T14:54:12.270Z,1092
2022-08-16T14:54:52.704Z,1100
2022-08-16T14:55:33.214Z,1100
2022-08-16T14:59:03.827Z,1136
2022-08-16T14:59:45.490Z,1148
2022-08-16T15:00:27.111Z,1156
2022-08-16T15:01:05.479Z,1160
2022-08-16T15:01:58.428Z,1160
2022-08-16T15:02:27.641Z,1164
2022-08-16T15:03:06.948Z,1168
2022-08-16T15:03:47.447Z,1168
2022-08-16T15:04:32.216Z,1164
2022-08-16T15:05:08.449Z,1164
2022-08-16T15:11:54.148Z,1184
2022-08-16T15:12:36.066Z,1188
2022-08-16T15:13:15.302Z,1200
2022-08-16T15:13:55.420Z,1204
2022-08-16T15:14:36.025Z,1204
2022-08-16T15:15:16.767Z,1204
2022-08-16T15:16:01.893Z,1208
2022-08-16T15:16:37.918Z,1204
2022-08-16T15:17:18.435Z,1204
2022-08-16T15:22:43.464Z,1180
2022-08-16T15:23:24.197Z,1176
2022-08-16T15:24:04.605Z,1168
2022-08-16T15:24:45.192Z,1152
2022-08-16T15:25:27.692Z,1136
2022-08-16T15:26:07.951Z,1124
2022-08-16T15:26:47.148Z,1112
2022-08-16T15:27:27.318Z,1096
2022-08-16T15:28:13.167Z,1084
2022-08-16T15:28:48.985Z,1068
2022-08-16T15:32:53.839Z,1068
2022-08-16T15:33:34.046Z,1072
2022-08-16T15:34:19.149Z,1084
2022-08-16T15:35:03.385Z,1096
2022-08-16T15:35:36.268Z,1108
2022-08-16T15:36:18.093Z,1112
2022-08-16T15:36:58.589Z,1112
2022-08-16T15:41:43.766Z,1064
2022-08-16T15:42:27.564Z,1064
2022-08-16T15:43:06.608Z,1076
2022-08-16T15:43:45.456Z,1052
2022-08-16T15:44:25.985Z,1032
2022-08-16T15:45:11.330Z,1004
2022-08-16T15:45:47.340Z,1012
2022-08-16T15:47:09.280Z,1000
2022-08-16T15:52:34.455Z,904
2022-08-16T15:53:16.320Z,888
2022-08-16T15:54:16.421Z,872
2022-08-16T15:54:37.258Z,864
2022-08-16T15:55:24.170Z,864
2022-08-16T15:55:58.715Z,884
2022-08-16T15:58:43.904Z,964
2022-08-16T15:59:27.073Z,928
2022-08-16T16:00:14.516Z,888
2022-08-16T16:00:46.471Z,868
2022-08-16T16:01:26.923Z,848
2022-08-16T16:02:07.726Z,828
2022-08-16T16:08:53.563Z,932
2022-08-16T16:09:34.825Z,936
2022-08-16T16:10:14.771Z,924
2022-08-16T16:10:55.254Z,904
2022-08-16T16:11:35.755Z,896
2022-08-16T16:12:41.859Z,888
2022-08-16T16:12:56.757Z,880
2022-08-16T16:13:37.245Z,876
2022-08-16T16:14:17.813Z,868
2022-08-16T16:14:58.290Z,868
2022-08-16T16:15:38.820Z,864
2022-08-16T16:22:25.235Z,780
2022-08-16T16:23:04.392Z,768
2022-08-16T16:23:53.916Z,772
2022-08-16T16:24:30.874Z,768
2022-08-16T16:25:05.908Z,768
2022-08-16T16:25:46.431Z,756
2022-08-16T16:26:26.970Z,748
2022-08-16T16:27:07.362Z,740
2022-08-16T16:27:55.590Z,728
2022-08-16T16:28:46.215Z,712
2022-08-16T16:34:35.740Z,592
2022-08-16T16:35:14.000Z,592
2022-08-16T16:35:56.762Z,588
2022-08-16T16:36:35.749Z,588
2022-08-16T16:37:16.223Z,580
2022-08-16T16:37:56.702Z,576
2022-08-16T16:38:39.140Z,576
2022-08-16T16:39:18.019Z,580
2022-08-16T16:39:58.513Z,580
2022-08-16T16:46:43.976Z,696
2022-08-16T16:47:23.987Z,692
2022-08-16T16:48:12.256Z,680
2022-08-16T16:48:45.062Z,660
2022-08-16T16:49:25.662Z,640
2022-08-16T16:50:06.193Z,620
2022-08-16T16:50:46.715Z,608
2022-08-16T16:51:28.001Z,592
2022-08-16T16:52:07.736Z,580
2022-08-16T16:52:48.215Z,572
2022-08-16T16:53:31.597Z,560
2022-08-16T16:58:54.223Z,576
2022-08-16T16:59:34.313Z,584
2022-08-16T17:00:26.167Z,584
2022-08-16T17:00:56.330Z,592
2022-08-16T17:01:46.565Z,592
2022-08-16T17:02:39.244Z,592
2022-08-16T17:02:56.793Z,584
2022-08-16T17:03:38.470Z,572
2022-08-16T17:04:19.488Z,560
2022-08-16T17:04:58.163Z,548
2022-08-16T17:05:38.684Z,552
2022-08-16T17:12:24.815Z,464
2022-08-16T17:13:05.209Z,460
2022-08-16T17:13:44.626Z,452
2022-08-16T17:14:32.530Z,440
2022-08-16T17:15:05.686Z,436
2022-08-16T17:15:46.504Z,424
2022-08-16T17:16:32.845Z,424
2022-08-16T17:17:08.529Z,420
2022-08-16T17:19:06.445Z,416
2022-08-16T17:22:34.330Z,384
2022-08-16T17:23:14.375Z,388
2022-08-16T17:23:57.934Z,384
2022-08-16T17:24:39.539Z,372
2022-08-16T17:27:50.973Z,352
2022-08-16T17:28:59.198Z,356
2022-08-16T17:29:11.368Z,352
2022-08-16T17:29:51.326Z,344
2022-08-16T17:30:44.819Z,340
2022-08-16T17:31:12.195Z,332
2022-08-16T17:31:52.700Z,332
2022-08-16T17:32:47.602Z,328
2022-08-16T17:33:13.873Z,324
2022-08-16T17:39:18.885Z,312
2022-08-16T17:39:59.957Z,308
2022-08-16T17:40:47.276Z,308
2022-08-16T17:41:20.404Z,308
2022-08-16T17:42:00.937Z,304
2022-08-16T17:42:44.803Z,304
2022-08-16T17:43:21.924Z,300
2022-08-16T17:44:02.455Z,304
2022-08-16T17:45:24.257Z,300
2022-08-16T17:50:49.139Z,268
2022-08-16T17:51:29.692Z,272
2022-08-16T17:52:10.212Z,268
2022-08-16T17:52:50.949Z,264
2022-08-16T17:53:31.189Z,264
2022-08-16T17:54:17.053Z,264
2022-08-16T17:54:52.267Z,260
2022-08-16T18:34:21.613Z,72
2022-08-16T18:35:02.144Z,68
2022-08-16T18:35:43.816Z,68
2022-08-16T18:36:24.406Z,64
2022-08-16T18:37:04.950Z,60
2022-08-16T18:37:45.349Z,60
2022-08-16T18:38:25.863Z,56
2022-08-16T18:45:51.590Z,32
2022-08-16T18:46:32.252Z,32
2022-08-16T18:47:12.688Z,28
2022-08-16T18:47:53.154Z,24
2022-08-16T18:48:33.879Z,24
2022-08-16T18:49:17.822Z,24
2022-08-16T18:49:55.917Z,24
2022-08-16T18:56:54.389Z,12
2022-08-16T18:57:22.034Z,12
2022-08-16T18:59:35.202Z,8
2022-08-16T19:00:15.578Z,8
2022-08-16T19:00:57.162Z,8
2022-08-16T19:01:36.633Z,8
2022-08-16T19:02:45.590Z,8
2022-08-16T19:02:59.161Z,4
2022-08-16T19:03:38.007Z,4
2022-08-16T19:04:48.182Z,4
2022-08-16T19:04:58.975Z,4
2022-08-16T19:05:39.423Z,4
2022-08-16T19:13:04.800Z,0
2022-08-16T19:14:25.773Z,0
2022-08-16T19:15:06.227Z,0
2022-08-16T19:15:46.844Z,0
2022-08-16T19:16:27.326Z,0
2022-08-16T19:17:07.792Z,0
2022-08-16T19:17:48.308Z,0
2022-08-16T19:18:28.745Z,0
2022-08-16T19:19:09.231Z,0
2022-08-16T19:19:49.746Z,0
2022-08-16T19:27:14.994Z,0
2022-08-16T19:27:55.455Z,0
2022-08-16T19:28:50.440Z,0
2022-08-16T19:29:16.563Z,0
2022-08-16T19:29:56.994Z,0
2022-08-16T19:30:37.434Z,0
2022-08-16T19:31:17.890Z,0
2022-08-16T19:31:58.410Z,0
2022-08-16T19:32:38.865Z,0
2022-08-16T19:33:19.341Z,0
2022-08-16T19:33:59.845Z,0
2022-08-16T19:41:25.112Z,0
2022-08-16T19:42:05.606Z,0
2022-08-16T19:42:46.116Z,0
2022-08-16T19:43:26.567Z,0
2022-08-16T19:44:07.078Z,0
2022-08-16T19:44:47.564Z,0
2022-08-16T19:45:27.989Z,0
2022-08-16T19:46:08.473Z,0
2022-08-16T19:46:48.990Z,0
2022-08-16T19:47:29.432Z,0